Nearby METAR Reports

 

KPMD - Palmdale, California, USA
Distance from station: NNE 12mi, 19km
Updated: Tue, 28-Jun-2022 5:53pm PDT
Clear
Clear
 Wind from W
Wind: W 23 mph , 37 km/h, Gust: 30 mph , 48 km/h
Temperature: 97°F , 36°C
Dew Point: 37°F , 3°C
Humidity: 13%
Barometer: 30.00 inHg , 1015.9 hPa
Clouds: Clear
Visibility: 10 miles , 16 km
2022/06/29 00:53 KPMD 290053Z 26020G26KT 10SM CLR 36/03 A3000 RMK AO2 PK WND 24031/0003 SLP125 T03560033
KWJF - Lancaster/Fox, California, USA
Distance from station: N 17mi, 27km
Updated: Tue, 28-Jun-2022 5:56pm PDT
Clear
Clear
 Wind from WSW
Wind: WSW 24 mph , 39 km/h, Gust: 33 mph , 54 km/h
Temperature: 97°F , 36°C
Dew Point: 37°F , 3°C
Humidity: 13%
Barometer: 29.97 inHg , 1014.9 hPa
Clouds: Clear
Visibility: 10 miles , 16 km
2022/06/29 00:56 KWJF 290056Z 24021G29KT 10SM CLR 36/03 A2997 RMK AO2 PK WND 24029/0045 SLP123 T03610028
 
KMWS - Mount Wilson, California, USA
Distance from station: SSE 18mi, 30km
Updated: Wed, 13-May-2015 6:45am PDT
NOT Current

 Wind from S
Wind: S 3 mph , 6 km/h, Gust: 5 mph , 7 km/h
Temperature: 43°F , 6°C
Dew Point: -0°F , -18°C
Humidity: 16%
2015/05/13 13:45 KMWS 131345Z 18003G04KT 06/M18 RMK SNOW DEPTH 1.00
KWHP - La / Whiteman, California, USA
Distance from station: SW 21mi, 34km
Updated: Tue, 28-Jun-2022 5:55pm PDT
Clear
Clear
 Wind from E
Wind: E 10 mph , 17 km/h
Temperature: 93°F , 34°C
Dew Point: 37°F , 3°C
Humidity: 14%
Barometer: 29.97 inHg , 1014.9 hPa
Clouds: Clear
Visibility: 10 miles , 16 km
2022/06/29 00:55 KWHP 290055Z 10009KT 10SM SKC 34/03 A2997
 
KBUR - Burbank, California, USA
Distance from station: SSW 22mi, 35km
Updated: Tue, 28-Jun-2022 5:53pm PDT
Clear
Clear
 Wind from S
Wind: S 9 mph , 15 km/h
Temperature: 93°F , 34°C
Dew Point: 46°F , 8°C
Humidity: 20%
Barometer: 29.94 inHg , 1013.9 hPa
Clouds: Clear
Visibility: 10 miles , 16 km
2022/06/29 00:53 KBUR 290053Z 17008KT 10SM CLR 34/08 A2994 RMK AO2 SLP122 T03390083
KVNY - Van Nuys, California, USA
Distance from station: SW 25mi, 40km
Updated: Tue, 28-Jun-2022 5:51pm PDT
Clear
Clear
 Wind from SE
Wind: SE 12 mph , 19 km/h
Temperature: 93°F , 34°C
Dew Point: 43°F , 6°C
Humidity: 17%
Barometer: 29.91 inHg , 1012.9 hPa
Clouds: Clear
Visibility: 10 miles , 16 km
2022/06/29 00:51 KVNY 290051Z 13010KT 10SM CLR 34/06 A2991 RMK AO2 SLP119 T03440056
 
KEDW - Edwards Afb, California, USA
Distance from station: NNE 33mi, 53km
Updated: Tue, 28-Jun-2022 5:58pm PDT
Few Clouds
Few Clouds
 Wind from WSW
Wind: WSW 25 mph , 41 km/h, Gust: 32 mph , 52 km/h
Temperature: 99°F , 37°C
Dew Point: 41°F , 5°C
Humidity: 14%
Barometer: 29.93 inHg , 1013.5 hPa
Clouds: Few Clouds
Visibility: 50 miles , 80 km
Cloud details: Few Clouds 8000 ft
2022/06/29 00:58 KEDW 290058Z 24022G28KT 50SM FEW080 37/05 A2993 RMK AO2A PK WND 25031/05 SLP107 T03710051
KSMO - Santa Monica, California, USA
Distance from station: SSW 35mi, 57km
Updated: Tue, 28-Jun-2022 5:51pm PDT
Clear
Clear
 Wind from WSW
Wind: WSW 7 mph , 11 km/h
Temperature: 70°F , 21°C
Dew Point: 61°F , 16°C
Humidity: 73%
Barometer: 29.95 inHg , 1014.2 hPa
Clouds: Clear
Visibility: 10 miles , 16 km
2022/06/29 00:51 KSMO 290051Z 24006KT 10SM CLR 21/16 A2995 RMK AO2 SLP138 T02110161
 
KLAX - Los Angeles, California, USA
Distance from station: SSW 39mi, 63km
Updated: Tue, 28-Jun-2022 5:53pm PDT
Few Clouds
Few Clouds
 Wind from W
Wind: W 13 mph , 20 km/h
Temperature: 72°F , 22°C
Dew Point: 61°F , 16°C
Humidity: 69%
Barometer: 29.95 inHg , 1014.2 hPa
Clouds: Few Clouds
Visibility: 10 miles , 16 km
Cloud details: Few Clouds 9000 ft
2022/06/29 00:53 KLAX 290053Z 26011KT 10SM FEW090 22/16 A2995 RMK AO2 SLP140 T02170156
KMHV - Mojave, California, USA
Distance from station: N 41mi, 66km
Updated: Tue, 28-Jun-2022 5:40pm PDT
Clear
Clear
 Wind from WNW
Wind: WNW 16 mph , 26 km/h, Gust: 23 mph , 37 km/h
Temperature: 99°F , 37°C
Dew Point: 34°F , 1°C
Humidity: 10%
Barometer: 30.00 inHg , 1015.9 hPa
Clouds: Clear
Visibility: 10 miles , 16 km
2022/06/29 00:40 KMHV 290040Z AUTO 29014G20KT 10SM CLR 37/01 A3000 RMK A01
 
KFUL - Fullerton, California, USA
Distance from station: SSE 44mi, 70km
Updated: Tue, 28-Jun-2022 5:53pm PDT
Clear
Clear
 Wind from SSW
Wind: SSW 10 mph , 17 km/h
Temperature: 79°F , 26°C
Dew Point: 57°F , 14°C
Humidity: 48%
Barometer: 29.92 inHg , 1013.2 hPa
Clouds: Clear
Visibility: 10 miles , 16 km
2022/06/29 00:53 KFUL 290053Z 20009KT 10SM CLR 26/14 A2992 RMK AO2 SLP132 T02610144
KONT - Ontario, California, USA
Distance from station: SE 45mi, 72km
Updated: Tue, 28-Jun-2022 5:53pm PDT
Few Clouds
Few Clouds
 Wind from WSW
Wind: WSW 14 mph , 22 km/h, Gust: 22 mph , 35 km/h
Temperature: 93°F , 34°C
Dew Point: 46°F , 8°C
Humidity: 20%
Barometer: 29.93 inHg , 1013.5 hPa
Clouds: Few Clouds
Visibility: 10 miles , 16 km
Cloud details: Few Clouds 12000 ft
2022/06/29 00:53 KONT 290053Z 25012G19KT 10SM FEW120 34/08 A2993 RMK AO2 SLP116 T03390078
 
KLGB - Long Beach, California, USA
Distance from station: S 46mi, 74km
Updated: Tue, 28-Jun-2022 5:53pm PDT
Clear
Clear
 Wind from SSE
Wind: SSE 10 mph , 17 km/h
Temperature: 79°F , 26°C
Dew Point: 54°F , 12°C
Humidity: 42%
Barometer: 29.93 inHg , 1013.5 hPa
Clouds: Clear
Visibility: 10 miles , 16 km
2022/06/29 00:53 KLGB 290053Z 16009KT 10SM CLR 26/12 A2993 RMK AO2 SLP135 T02610122
KVCV - Victorville, California, USA
Distance from station: E 46mi, 74km
Updated: Tue, 28-Jun-2022 5:55pm PDT
Clear
Clear
 Wind from S
Wind: S 17 mph , 28 km/h, Gust: 25 mph , 41 km/h
Temperature: 97°F , 36°C
Dew Point: 45°F , 7°C
Humidity: 17%
Barometer: 30.01 inHg , 1016.3 hPa
Clouds: Clear
Visibility: 10 miles , 16 km
2022/06/29 00:55 KVCV 290055Z AUTO 17015G22KT 10SM CLR 36/07 A3001 RMK AO2
 
KTSP - Tehachapi, California, USA
Distance from station: NNW 48mi, 77km
Updated: Tue, 28-Jun-2022 6:15pm PDT
Clear
Clear
 Wind from NW
Wind: NW 16 mph , 26 km/h, Gust: 23 mph , 37 km/h
Temperature: 86°F , 30°C
Dew Point: 30°F , -1°C
Humidity: 13%
Barometer: 30.14 inHg , 1020.7 hPa
Clouds: Clear
Visibility: 10 miles , 16 km
2022/06/29 01:15 KTSP 290115Z AUTO 31014G20KT 10SM CLR 30/M01 A3014 RMK AO2